Time;durP1;ratioP1;P1;durP2;ratioP2;P2;SDS_P1;SDS_P2;PMS_P1;PMS_P2;Temp;Humidity;BMP_temperature;BMP_pressure;BME280_temperature;BME280_humidity;BME280_pressure;Samples;Min_cycle;Max_cycle;Signal;HPM_P1;HPM_P2
2021/09/27 00:00:49;;;;;;;34.67;25.55;;;;;;;18.86;78.03;100999.00;5113324;28;20044;-62
2021/09/27 00:03:35;;;;;;;35.35;24.75;;;;;;;18.82;77.99;100992.63;5092834;28;20044;-62
2021/09/27 00:06:20;;;;;;;35.17;26.45;;;;;;;18.80;78.22;100990.22;5097532;28;20051;-62
2021/09/27 00:09:04;;;;;;;32.17;24.95;;;;;;;18.79;78.76;100990.63;5104456;28;20052;-62
2021/09/27 00:11:50;;;;;;;34.33;25.33;;;;;;;18.84;78.36;100987.56;5100990;28;20495;-62
2021/09/27 00:14:34;;;;;;;32.33;25.30;;;;;;;18.79;78.60;100991.38;5101021;28;20044;-62
2021/09/27 00:17:20;;;;;;;34.70;24.70;;;;;;;18.74;78.39;100990.91;5096366;28;20369;-62
2021/09/27 00:20:07;;;;;;;28.08;21.90;;;;;;;18.67;78.32;100994.31;5092375;28;20052;-62
2021/09/27 00:22:52;;;;;;;26.38;21.48;;;;;;;18.82;78.05;100989.06;5114357;28;20039;-62
2021/09/27 00:25:38;;;;;;;22.65;17.13;;;;;;;18.86;76.91;100990.72;5095337;28;20040;-62
2021/09/27 00:28:23;;;;;;;21.33;18.17;;;;;;;18.75;76.41;100985.00;5093309;28;20579;-62
2021/09/27 00:31:09;;;;;;;17.77;15.60;;;;;;;18.60;76.37;100980.38;5091763;28;20048;-62
2021/09/27 00:33:55;;;;;;;19.58;14.77;;;;;;;18.48;75.99;100977.75;5095850;28;20044;-62
2021/09/27 00:36:40;;;;;;;20.10;15.90;;;;;;;18.37;76.33;100973.97;5092515;28;20451;-62
2021/09/27 00:39:25;;;;;;;19.45;16.33;;;;;;;18.43;77.01;100967.03;5090785;28;20043;-62
2021/09/27 05:07:41;;;;;;;80.15;16.23;;;;;;;16.26;83.57;100919.56;5096099;28;20047;-63
2021/09/27 05:10:35;;;;;;;;;;;;;;;15.45;89.02;100913.50;5099107;28;20035;-63
2021/09/27 05:13:58;;;;;;;119.72;16.73;;;;;;;15.17;91.20;100916.13;5108625;28;19911;-63
2021/09/27 05:17:07;;;;;;;88.03;17.75;;;;;;;15.41;91.22;100916.94;5099714;28;20040;-63
2021/09/27 05:20:10;;;;;;;90.82;19.40;;;;;;;15.24;91.81;100911.66;5097356;28;20040;-62
2021/09/27 05:23:06;;;;;;;74.43;19.40;;;;;;;15.46;92.16;100918.63;5102804;28;20484;-62
2021/09/27 05:26:36;;;;;;;192.30;22.50;;;;;;;15.52;90.67;100921.97;5098155;28;20039;-62
2021/09/27 05:29:42;;;;;;;105.53;22.92;;;;;;;15.58;90.95;100928.84;5079722;28;20476;-62
2021/09/27 05:32:52;;;;;;;65.22;19.45;;;;;;;15.67;90.48;100921.28;5117536;28;20399;-65
2021/09/27 05:35:49;;;;;;;54.30;20.50;;;;;;;15.80;89.70;100931.09;5093700;28;20040;-64
2021/09/27 05:38:35;;;;;;;58.38;19.08;;;;;;;16.07;89.28;100937.78;5095906;28;20044;-64
2021/09/27 05:41:45;;;;;;;35.90;19.50;;;;;;;16.16;87.54;100946.66;5109322;28;20039;-64
2021/09/27 05:44:31;;;;;;;55.42;17.40;;;;;;;15.97;87.46;100939.06;5118237;28;20040;-64
2021/09/27 05:47:54;;;;;;;52.60;18.90;;;;;;;15.92;88.23;100947.53;5116179;28;20036;-65
2021/09/27 05:50:56;;;;;;;35.45;17.95;;;;;;;16.14;87.51;100947.03;5118686;28;20040;-65
2021/09/27 05:53:50;;;;;;;35.17;16.45;;;;;;;16.36;84.88;100947.63;5115779;28;20036;-64
2021/09/27 05:56:59;;;;;;;64.20;16.95;;;;;;;16.06;86.92;100950.69;5119407;28;20043;-64
2021/09/27 05:59:55;;;;;;;47.72;16.75;;;;;;;16.16;86.43;100938.44;5116085;28;20410;-65
2021/09/27 06:02:46;;;;;;;43.42;15.57;;;;;;;16.47;84.41;100946.00;5106118;28;20047;-65
2021/09/27 06:05:47;;;;;;;68.20;15.80;;;;;;;16.21;86.21;100955.47;5100938;28;20040;-64
2021/09/27 06:09:09;;;;;;;49.95;15.35;;;;;;;16.64;84.48;100946.56;5103967;28;20040;-64
2021/09/27 06:12:21;;;;;;;22.73;16.30;;;;;;;16.69;84.51;100953.72;5100865;28;20044;-64
2021/09/27 06:15:11;;;;;;;28.35;16.55;;;;;;;16.83;83.59;100953.31;5099731;28;20699;-65
2021/09/27 06:18:16;;;;;;;35.70;16.48;;;;;;;16.53;85.18;100950.91;5112371;28;20036;-65
2021/09/27 06:21:07;;;;;;;28.10;17.00;;;;;;;16.60;84.96;100950.34;5094184;28;20044;-65
2021/09/27 06:24:16;;;;;;;39.50;17.85;;;;;;;16.60;84.75;100959.38;5098100;28;20032;-65
2021/09/27 06:27:10;;;;;;;31.77;16.52;;;;;;;16.54;85.28;100957.19;5095119;28;20036;-65
2021/09/27 06:30:45;;;;;;;24.83;16.65;;;;;;;16.58;85.60;100958.94;5092464;28;20036;-64
2021/09/27 06:33:43;;;;;;;27.10;17.05;;;;;;;16.67;84.67;100967.00;5051488;28;20061;-65
2021/09/27 06:36:32;;;;;;;26.88;17.25;;;;;;;16.74;84.71;100969.97;5110233;28;20036;-65
2021/09/27 06:39:21;;;;;;;32.42;18.80;;;;;;;16.82;84.12;100974.50;5113845;28;20040;-65
2021/09/27 06:42:06;;;;;;;41.78;18.83;;;;;;;17.19;82.77;100977.03;5103817;28;20036;-65
2021/09/27 06:44:53;;;;;;;27.42;18.70;;;;;;;17.24;81.37;100979.53;5100326;28;20036;-65
2021/09/27 06:47:37;;;;;;;25.50;17.45;;;;;;;17.45;80.29;100985.56;5104374;28;20032;-65
2021/09/27 06:50:22;;;;;;;27.33;17.67;;;;;;;17.37;80.81;100981.06;5113998;28;20044;-65
2021/09/27 06:53:08;;;;;;;;;;;;;;;17.77;78.93;100986.38;5118476;28;20036;-65
2021/09/27 06:55:52;;;;;;;25.98;17.15;;;;;;;17.42;80.47;100989.03;5116469;28;19911;-65
2021/09/27 06:58:38;;;;;;;25.60;17.10;;;;;;;17.44;80.77;100983.97;5113861;28;20499;-65
2021/09/27 07:01:23;;;;;;;26.08;17.20;;;;;;;17.66;80.55;100979.81;5118185;28;20047;-65
2021/09/27 07:04:08;;;;;;;24.00;16.95;;;;;;;17.67;80.61;100987.72;5114972;28;20040;-65
2021/09/27 07:06:53;;;;;;;;;;;;;;;17.57;80.80;100988.25;5111754;28;20043;-65
2021/09/27 07:09:38;;;;;;;26.17;17.48;;;;;;;17.54;80.91;100984.22;5092210;28;19912;-65
2021/09/27 07:12:23;;;;;;;26.45;17.98;;;;;;;17.58;80.74;100981.56;5103354;28;20040;-65
2021/09/27 07:15:09;;;;;;;26.77;17.92;;;;;;;17.63;80.33;100981.31;5095897;28;20083;-65
2021/09/27 07:17:53;;;;;;;;;;;;;;;17.80;80.02;100982.91;5109438;28;20044;-65
2021/09/27 07:20:38;;;;;;;25.30;16.15;;;;;;;17.77;79.76;100989.94;5116470;28;20278;-66
2021/09/27 07:23:23;;;;;;;24.40;17.52;;;;;;;18.25;78.08;100991.41;5114227;28;20487;-65
2021/09/27 07:26:12;;;;;;;26.55;15.50;;;;;;;18.58;77.43;100992.94;5104706;28;20047;-64
2021/09/27 07:28:57;;;;;;;23.63;16.05;;;;;;;19.21;76.36;100982.31;5094822;28;20040;-65
2021/09/27 07:31:41;;;;;;;;;;;;;;;19.94;73.55;100998.56;5098294;28;20039;-65
2021/09/27 07:34:27;;;;;;;18.48;11.52;;;;;;;20.21;72.01;100993.81;5095609;28;19915;-65
2021/09/27 07:37:12;;;;;;;19.20;13.45;;;;;;;20.38;70.63;100992.47;5099796;28;20052;-65
2021/09/27 07:39:58;;;;;;;18.02;13.00;;;;;;;20.66;69.97;100994.81;5097531;28;20040;-65
2021/09/27 07:42:43;;;;;;;22.20;14.60;;;;;;;19.20;73.37;100994.50;5097850;28;20043;-65
2021/09/27 07:45:33;;;;;;;20.60;14.48;;;;;;;19.69;71.77;100999.31;5108981;28;20036;-64
2021/09/27 07:48:19;;;;;;;23.65;13.93;;;;;;;18.90;75.13;100994.34;5097478;28;20036;-64
2021/09/27 07:51:04;;;;;;;20.20;14.25;;;;;;;18.96;75.49;100997.59;5095363;28;20044;-65
2021/09/27 07:53:50;;;;;;;18.88;14.07;;;;;;;19.87;71.94;100997.63;5110081;28;20040;-64
2021/09/27 07:56:35;;;;;;;28.85;13.80;;;;;;;19.68;71.60;101004.03;5118228;28;20403;-65
2021/09/27 07:59:21;;;;;;;20.98;14.00;;;;;;;19.75;71.89;101000.63;5116161;28;20040;-64
2021/09/27 08:02:06;;;;;;;18.65;11.63;;;;;;;20.07;71.27;100988.88;5120191;28;20047;-65
2021/09/27 08:04:51;;;;;;;18.25;12.38;;;;;;;20.77;68.26;100995.75;5118215;28;20036;-65
2021/09/27 08:07:36;;;;;;;19.05;12.32;;;;;;;21.24;66.42;101000.59;5101723;28;20420;-65
2021/09/27 08:10:23;;;;;;;17.05;11.82;;;;;;;20.93;66.66;101001.81;5096452;28;20044;-65
2021/09/27 08:13:09;;;;;;;19.30;12.63;;;;;;;20.44;68.45;100991.78;5097844;28;20052;-65
2021/09/27 08:15:55;;;;;;;19.40;14.05;;;;;;;20.69;67.76;100997.63;5094742;28;20044;-65
2021/09/27 08:18:39;;;;;;;22.05;14.93;;;;;;;19.83;70.79;100992.06;5097678;28;20514;-65
2021/09/27 08:21:25;;;;;;;18.92;13.63;;;;;;;20.21;69.96;100987.50;5097994;28;20040;-65
2021/09/27 08:24:09;;;;;;;22.38;14.05;;;;;;;20.88;67.30;100996.63;5095967;28;20040;-65
2021/09/27 08:26:54;;;;;;;18.80;13.40;;;;;;;20.82;67.23;100995.41;5099687;28;20039;-65
2021/09/27 08:29:40;;;;;;;26.52;14.32;;;;;;;19.98;69.57;100995.84;5106878;28;20479;-66
2021/09/27 08:32:25;;;;;;;20.73;14.10;;;;;;;19.72;71.69;100987.53;5095853;28;20040;-64
2021/09/27 08:35:10;;;;;;;16.35;12.00;;;;;;;20.88;67.93;100993.88;5110497;28;20043;-64
2021/09/27 08:37:56;;;;;;;22.45;12.23;;;;;;;21.39;65.73;100993.22;5104256;28;20499;-65
2021/09/27 08:40:59;;;;;;;19.58;13.05;;;;;;;21.74;64.43;101002.63;5116055;28;20043;-65
2021/09/27 08:44:04;;;;;;;18.88;14.38;;;;;;;19.98;69.56;100998.59;5119210;28;20479;-65
2021/09/27 08:47:14;;;;;;;20.58;12.73;;;;;;;20.58;67.80;100998.66;5116749;28;20043;-64
2021/09/27 08:50:21;;;;;;;18.20;13.27;;;;;;;20.52;68.20;100997.41;5098960;28;20036;-64
2021/09/27 08:53:23;;;;;;;18.02;14.00;;;;;;;20.92;67.08;101001.06;5105179;28;20039;-64
2021/09/27 08:56:33;;;;;;;18.45;12.43;;;;;;;21.37;65.64;101001.13;5105904;28;20044;-65
2021/09/27 08:59:59;;;;;;;19.90;13.63;;;;;;;21.31;64.56;101004.25;5114539;28;20043;-64
2021/09/27 09:03:06;;;;;;;21.08;13.60;;;;;;;21.50;65.40;101013.50;5071505;28;20040;-65
2021/09/27 09:06:07;;;;;;;17.77;13.90;;;;;;;21.53;63.93;101015.50;5107689;28;20488;-64
2021/09/27 09:09:05;;;;;;;16.73;12.80;;;;;;;21.96;63.43;101020.22;5096019;28;20033;-65
2021/09/27 09:11:59;;;;;;;19.25;13.30;;;;;;;21.42;65.12;101009.88;5094082;28;20044;-64
2021/09/27 09:14:59;;;;;;;22.52;12.77;;;;;;;21.06;66.04;101011.47;5097735;28;20040;-65
2021/09/27 09:17:56;;;;;;;17.55;12.95;;;;;;;20.88;66.49;101016.78;5094865;28;20044;-64
2021/09/27 09:20:51;;;;;;;18.95;13.65;;;;;;;20.77;67.00;101012.34;5098347;28;20043;-64
2021/09/27 09:23:45;;;;;;;;;;;;;;;21.26;65.92;101012.88;5096964;28;20039;-64
2021/09/27 09:26:37;;;;;;;20.98;13.68;;;;;;;21.05;67.39;101009.88;5099671;28;20294;-65
2021/09/27 09:29:26;;;;;;;17.60;13.02;;;;;;;20.76;68.71;101011.53;5094616;28;20036;-65
2021/09/27 09:32:27;;;;;;;20.13;13.57;;;;;;;21.17;66.65;101011.63;5094899;28;20039;-64
2021/09/27 09:35:17;;;;;;;20.15;14.25;;;;;;;21.29;67.45;101006.59;5098608;28;20044;-64
2021/09/27 09:38:04;;;;;;;19.83;13.07;;;;;;;21.62;65.52;101004.91;5096385;28;20040;-64
2021/09/27 09:40:55;;;;;;;16.20;11.50;;;;;;;21.98;64.35;101012.34;5094300;28;20044;-64
2021/09/27 09:43:44;;;;;;;17.35;11.73;;;;;;;21.90;64.87;101010.66;5097811;28;20047;-64
2021/09/27 09:46:33;;;;;;;16.30;12.18;;;;;;;22.12;64.08;101012.44;5095909;28;20048;-64
2021/09/27 09:49:17;;;;;;;16.00;12.07;;;;;;;21.95;63.61;101015.06;5093590;28;20419;-64
2021/09/27 09:52:03;;;;;;;23.05;13.70;;;;;;;21.62;65.33;101013.22;5096539;28;20399;-65
2021/09/27 09:54:49;;;;;;;26.17;13.45;;;;;;;21.74;64.73;101015.66;5095537;28;20052;-64
2021/09/27 09:57:37;;;;;;;21.83;14.45;;;;;;;21.61;65.66;101022.69;5093675;28;20503;-64
2021/09/27 10:00:41;;;;;;;22.48;12.77;;;;;;;21.69;65.51;101014.06;5097428;28;20040;-66
2021/09/27 10:03:38;;;;;;;18.35;12.68;;;;;;;21.76;65.34;101024.41;5094534;28;20039;-65
2021/09/27 10:06:37;;;;;;;18.70;12.70;;;;;;;22.12;63.58;101029.06;5116532;28;20220;-66
2021/09/27 10:09:27;;;;;;;23.95;12.65;;;;;;;22.22;63.58;101021.19;5114072;28;20403;-65
2021/09/27 10:12:42;;;;;;;17.02;12.05;;;;;;;22.16;62.33;101021.56;5113030;28;20056;-65
2021/09/27 10:15:27;;;;;;;17.23;11.73;;;;;;;22.37;62.60;101025.63;5116656;28;20040;-65
2021/09/27 10:18:17;;;;;;;17.23;11.57;;;;;;;22.68;61.66;101018.66;5111374;28;20035;-65
2021/09/27 10:21:24;;;;;;;17.30;10.48;;;;;;;22.53;62.32;101026.91;5097540;28;20395;-65
2021/09/27 10:24:21;;;;;;;17.60;12.02;;;;;;;22.60;62.15;101024.16;5114584;28;20040;-65
2021/09/27 10:27:20;;;;;;;18.45;13.02;;;;;;;22.21;63.41;101025.13;5102529;28;20040;-65
2021/09/27 10:30:17;;;;;;;18.85;12.57;;;;;;;22.57;62.12;101021.38;5095674;28;20037;-66
2021/09/27 10:33:12;;;;;;;20.95;13.07;;;;;;;22.01;63.90;101025.41;5098714;28;20483;-66
2021/09/27 10:36:00;;;;;;;19.20;13.07;;;;;;;21.79;64.53;101033.94;5117160;28;20407;-66
2021/09/27 10:38:52;;;;;;;20.38;12.82;;;;;;;23.22;60.08;101035.09;5114633;28;20047;-65
2021/09/27 10:41:42;;;;;;;22.10;12.63;;;;;;;24.33;56.31;101031.16;5118126;28;20039;-65
2021/09/27 10:44:38;;;;;;;19.48;12.85;;;;;;;25.12;54.14;101030.47;5116634;28;20489;-65
2021/09/27 10:47:27;;;;;;;18.23;12.20;;;;;;;25.95;51.52;101028.69;5113908;28;20036;-66
2021/09/27 10:50:15;;;;;;;16.10;11.30;;;;;;;27.33;48.70;101031.84;5117615;28;20039;-66
2021/09/27 10:53:16;;;;;;;15.93;10.20;;;;;;;28.37;45.12;101032.47;5116036;28;20390;-65
2021/09/27 10:56:14;;;;;;;16.23;11.18;;;;;;;31.32;38.13;101030.19;5098178;28;20040;-64
2021/09/27 10:59:13;;;;;;;13.73;10.95;;;;;;;33.10;35.84;101025.50;5094280;28;20040;-65
2021/09/27 11:02:21;;;;;;;21.23;12.10;;;;;;;30.57;38.92;101028.84;5093062;28;20052;-65
2021/09/27 11:05:18;;;;;;;13.43;10.82;;;;;;;33.05;34.48;101023.28;5108130;28;20490;-65
2021/09/27 11:08:13;;;;;;;11.73;9.40;;;;;;;36.32;28.90;101028.88;5112303;28;20442;-66
2021/09/27 11:10:58;;;;;;;12.82;9.10;;;;;;;38.80;26.07;101039.94;5104140;28;20042;-66
2021/09/27 11:13:45;;;;;;;15.25;11.95;;;;;;;36.33;28.15;101019.88;5103736;28;20546;-67
2021/09/27 11:16:35;;;;;;;10.98;9.82;;;;;;;34.09;31.98;101012.13;5097608;28;20044;-65
2021/09/27 11:19:30;;;;;;;14.95;11.43;;;;;;;34.11;32.58;101012.44;5096789;28;20418;-66
2021/09/27 11:22:17;;;;;;;19.20;10.10;;;;;;;34.57;31.98;101006.78;5098391;28;20032;-66
2021/09/27 11:25:11;;;;;;;15.95;10.90;;;;;;;35.70;30.01;101014.69;5096285;28;20274;-66
2021/09/27 11:28:13;;;;;;;17.17;10.80;;;;;;;37.70;26.64;101012.59;5100064;28;20048;-66
2021/09/27 11:30:58;;;;;;;17.58;11.18;;;;;;;35.01;30.92;101007.13;5097653;28;20048;-66
2021/09/27 11:33:48;;;;;;;14.27;11.25;;;;;;;37.92;26.50;101012.88;5101499;28;20040;-65
2021/09/27 11:36:52;;;;;;;16.08;10.98;;;;;;;38.27;25.79;101015.63;5099119;28;20483;-65
2021/09/27 11:40:00;;;;;;;13.15;10.80;;;;;;;38.40;25.60;101015.25;5095498;28;20032;-65
2021/09/27 11:43:16;;;;;;;15.13;10.20;;;;;;;38.21;26.13;100999.78;5079821;28;20051;-66
2021/09/27 11:46:05;;;;;;;16.40;9.98;;;;;;;39.55;23.77;101013.88;5087526;28;20040;-65
2021/09/27 11:49:01;;;;;;;13.88;11.27;;;;;;;33.16;34.08;100999.53;5098075;28;20047;-65
2021/09/27 11:52:02;;;;;;;15.85;9.80;;;;;;;38.97;24.56;101011.66;5096941;28;20036;-65
2021/09/27 11:54:53;;;;;;;15.45;11.52;;;;;;;37.33;26.71;101003.03;5100395;28;20055;-65
2021/09/27 11:57:52;;;;;;;17.17;12.15;;;;;;;34.56;31.20;100996.72;5097765;28;20036;-65
2021/09/27 12:00:54;;;;;;;14.07;11.32;;;;;;;33.74;33.77;100991.88;5095107;28;20040;-65
2021/09/27 12:03:44;;;;;;;16.33;10.77;;;;;;;36.76;28.47;100997.72;5098494;28;20040;-65
2021/09/27 12:06:35;;;;;;;21.00;12.73;;;;;;;37.39;26.58;100998.19;5096442;28;20400;-65
2021/09/27 12:09:32;;;;;;;25.02;12.13;;;;;;;36.58;28.42;100997.88;5095980;28;20039;-66
2021/09/27 12:12:28;;;;;;;22.02;11.65;;;;;;;34.28;31.41;100990.34;5097277;28;20514;-66
2021/09/27 12:15:19;;;;;;;18.15;12.70;;;;;;;31.97;35.79;100987.47;5096522;28;20044;-66
2021/09/27 12:18:05;;;;;;;21.27;11.90;;;;;;;32.05;35.69;100988.75;5112771;28;20494;-63
2021/09/27 12:20:50;;;;;;;22.38;12.65;;;;;;;30.04;40.05;100981.81;5098732;28;20040;-64
2021/09/27 12:23:44;;;;;;;20.98;11.35;;;;;;;29.37;41.24;100977.91;5121326;28;20047;-62
2021/09/27 12:26:31;;;;;;;16.83;12.50;;;;;;;-144.51;100.00;69251.94;5118876;28;20039;-61
2021/09/27 12:29:21;;;;;;;30.27;13.25;;;;;;;-144.51;100.00;69251.94;5116055;28;20035;-61
2021/09/27 12:32:08;;;;;;;21.02;11.88;;;;;;;-144.51;100.00;69251.94;5121745;27;20487;-61
2021/09/27 12:34:53;;;;;;;25.27;12.43;;;;;;;-144.51;100.00;69251.94;5119117;27;20054;-60
2021/09/27 12:37:42;;;;;;;18.17;13.27;;;;;;;-144.51;100.00;69251.94;5116505;28;20040;-61
2021/09/27 12:40:32;;;;;;;20.02;13.75;;;;;;;-144.51;100.00;69251.94;5120166;28;20411;-62
2021/09/27 12:43:26;;;;;;;23.58;14.70;;;;;;;-144.51;100.00;69251.94;5117784;28;20494;-62
2021/09/27 12:46:17;;;;;;;19.00;11.55;;;;;;;-144.51;100.00;69251.94;5107189;28;20402;-62
2021/09/27 12:49:07;;;;;;;21.88;13.85;;;;;;;-144.51;100.00;69251.94;5103545;28;20035;-61
2021/09/27 12:51:55;;;;;;;20.98;12.50;;;;;;;-144.51;100.00;69251.94;5116791;28;20039;-61
2021/09/27 12:54:48;;;;;;;18.27;12.05;;;;;;;-144.51;100.00;69251.94;5114983;28;20044;-61
2021/09/27 12:57:41;;;;;;;17.75;13.07;;;;;;;-144.51;100.00;69251.94;5118397;28;20039;-61
2021/09/27 13:00:42;;;;;;;22.30;15.18;;;;;;;-144.51;100.00;69251.94;5116551;28;20048;-61
2021/09/27 13:03:30;;;;;;;22.05;15.18;;;;;;;-144.51;100.00;69251.94;5119449;28;20039;-61
2021/09/27 13:06:26;;;;;;;23.88;15.32;;;;;;;-144.51;100.00;69251.94;5117276;28;20065;-61
2021/09/27 13:09:20;;;;;;;28.55;14.30;;;;;;;-144.51;100.00;69251.94;5114665;28;20044;-61
2021/09/27 13:12:29;;;;;;;23.73;15.70;;;;;;;-144.51;100.00;69251.94;5114146;28;20036;-61
2021/09/27 13:15:24;;;;;;;21.23;15.90;;;;;;;-144.51;100.00;69251.94;5114418;28;20048;-61
2021/09/27 13:18:24;;;;;;;20.80;15.25;;;;;;;-144.51;100.00;69251.94;5118385;28;20051;-61
2021/09/27 13:21:32;;;;;;;26.77;16.35;;;;;;;-144.51;100.00;69251.94;5116461;28;20043;-61
2021/09/27 13:24:23;;;;;;;23.83;14.73;;;;;;;-144.51;100.00;69251.94;5118950;28;20519;-60
2021/09/27 13:27:14;;;;;;;23.88;14.73;;;;;;;-144.51;100.00;69251.94;5116057;28;20407;-60
2021/09/27 13:30:12;;;;;;;23.67;15.82;;;;;;;-144.51;100.00;69251.94;5114597;28;20035;-61
2021/09/27 13:33:04;;;;;;;22.80;13.13;;;;;;;-144.51;100.00;69251.94;5117844;28;20044;-61
2021/09/27 13:36:25;;;;;;;24.73;15.77;;;;;;;-144.51;100.00;69251.94;5115700;28;20039;-61
2021/09/27 13:39:13;;;;;;;18.95;14.63;;;;;;;-144.51;100.00;69251.94;5115054;28;20043;-60
2021/09/27 13:42:04;;;;;;;30.95;14.75;;;;;;;-144.51;100.00;69251.94;5115160;28;20039;-61
2021/09/27 13:44:52;;;;;;;19.13;14.45;;;;;;;-144.51;100.00;69251.94;5119322;28;20055;-60
2021/09/27 13:47:37;;;;;;;20.63;13.75;;;;;;;-144.51;100.00;69251.94;5116949;28;20035;-61
2021/09/27 13:50:22;;;;;;;18.35;13.63;;;;;;;-144.51;100.00;69251.94;5115655;28;20048;-61
2021/09/27 13:53:17;;;;;;;24.40;13.23;;;;;;;-144.51;100.00;69251.94;5119500;28;20047;-61
2021/09/27 13:56:07;;;;;;;21.95;15.32;;;;;;;-144.51;100.00;69251.94;5117130;28;20039;-60
2021/09/27 13:58:52;;;;;;;22.05;14.10;;;;;;;-144.51;100.00;69251.94;5114651;28;20035;-61
2021/09/27 14:01:37;;;;;;;24.42;13.90;;;;;;;-144.51;100.00;69251.94;5119161;28;20039;-61
2021/09/27 14:04:22;;;;;;;21.73;14.35;;;;;;;-144.51;100.00;69251.94;5113785;27;20036;-61
2021/09/27 14:07:07;;;;;;;19.55;11.63;;;;;;;-144.51;100.00;69251.94;5111675;28;20035;-62
2021/09/27 14:09:54;;;;;;;25.08;14.30;;;;;;;-144.51;100.00;69251.94;5104778;28;20486;-62
2021/09/27 14:12:39;;;;;;;25.70;15.70;;;;;;;-144.51;100.00;69251.94;5116853;27;20043;-61
2021/09/27 14:15:24;;;;;;;18.95;12.68;;;;;;;-144.51;100.00;69251.94;5112792;28;20040;-61
2021/09/27 14:18:10;;;;;;;18.67;12.70;;;;;;;-144.51;100.00;69251.94;5115930;27;20300;-61
2021/09/27 14:20:55;;;;;;;17.75;11.63;;;;;;;-144.51;100.00;69251.94;5115703;27;20048;-61
2021/09/27 14:23:41;;;;;;;23.92;11.25;;;;;;;-144.51;100.00;69251.94;5115170;28;20039;-62
2021/09/27 14:26:29;;;;;;;22.45;14.85;;;;;;;-144.51;100.00;69251.94;5113165;28;20039;-62
2021/09/27 14:29:14;;;;;;;16.85;10.68;;;;;;;-144.51;100.00;69251.94;5113527;28;20035;-62
2021/09/27 14:31:59;;;;;;;15.80;11.38;;;;;;;-144.51;100.00;69251.94;5114561;28;20048;-61
2021/09/27 14:34:44;;;;;;;23.55;14.75;;;;;;;-144.51;100.00;69251.94;5112980;28;20043;-61
2021/09/27 14:37:29;;;;;;;19.35;12.80;;;;;;;-144.51;100.00;69251.94;5117598;28;20507;-61
2021/09/27 14:40:17;;;;;;;20.90;13.77;;;;;;;-144.51;100.00;69251.94;5119627;28;20040;-62
2021/09/27 14:43:03;;;;;;;27.83;17.20;;;;;;;-144.51;100.00;69251.94;5096949;28;20495;-62
2021/09/27 14:45:48;;;;;;;16.88;11.75;;;;;;;-144.51;100.00;69251.94;5101258;28;20036;-62
2021/09/27 14:48:33;;;;;;;19.73;14.38;;;;;;;-144.51;100.00;69251.94;5099129;28;20048;-62
2021/09/27 14:51:19;;;;;;;20.75;14.93;;;;;;;-144.51;100.00;69251.94;5096976;28;20043;-62
2021/09/27 14:54:03;;;;;;;16.95;11.57;;;;;;;-144.51;100.00;69251.94;5101028;28;20052;-62
2021/09/27 14:56:49;;;;;;;15.73;12.13;;;;;;;-144.51;100.00;69251.94;5108507;28;20047;-62
2021/09/27 14:59:35;;;;;;;17.08;11.27;;;;;;;-144.51;100.00;69251.94;5116282;28;20036;-61
2021/09/27 15:02:20;;;;;;;17.35;11.38;;;;;;;-144.51;100.00;69251.94;5122900;27;20044;-61
2021/09/27 15:05:05;;;;;;;16.52;11.52;;;;;;;-144.51;100.00;69251.94;5122032;27;20031;-62
2021/09/27 15:07:52;;;;;;;17.88;12.05;;;;;;;-144.51;100.00;69251.94;5097905;28;20438;-62
2021/09/27 15:10:38;;;;;;;20.27;14.57;;;;;;;-144.51;100.00;69251.94;5107611;27;20032;-62
2021/09/27 15:13:23;;;;;;;19.67;15.55;;;;;;;-144.51;100.00;69251.94;5101506;28;20056;-62
2021/09/27 15:16:08;;;;;;;19.13;14.15;;;;;;;-144.51;100.00;69251.94;5117820;28;20040;-61
2021/09/27 15:18:52;;;;;;;20.45;13.35;;;;;;;-144.51;100.00;69251.94;5118617;28;20426;-61
2021/09/27 15:21:40;;;;;;;19.10;14.38;;;;;;;-144.51;100.00;69251.94;5120384;27;20036;-61
2021/09/27 15:24:26;;;;;;;20.33;14.25;;;;;;;-144.51;100.00;69251.94;5122276;27;20039;-61
2021/09/27 15:27:10;;;;;;;19.85;15.43;;;;;;;-144.51;100.00;69251.94;5120511;27;20035;-62
2021/09/27 15:29:55;;;;;;;19.27;13.65;;;;;;;-144.51;100.00;69251.94;5120458;28;20039;-67
2021/09/27 15:32:41;;;;;;;24.80;11.90;;;;;;;-144.51;100.00;69251.94;5118743;28;20418;-67
2021/09/27 15:35:26;;;;;;;18.05;10.85;;;;;;;-144.51;100.00;69251.94;5116915;28;20044;-67
2021/09/27 15:38:15;;;;;;;21.52;15.65;;;;;;;-144.51;100.00;69251.94;5120411;28;20043;-67
2021/09/27 15:41:01;;;;;;;16.50;10.63;;;;;;;-144.51;100.00;69251.94;5122784;28;20035;-66
2021/09/27 15:43:47;;;;;;;16.73;12.23;;;;;;;-144.51;100.00;69251.94;5122959;28;20044;-66
2021/09/27 15:46:32;;;;;;;17.05;11.98;;;;;;;-144.51;100.00;69251.94;5122832;28;20040;-65
2021/09/27 15:49:18;;;;;;;20.10;14.80;;;;;;;-144.51;100.00;69251.94;5115972;28;20040;-64
2021/09/27 15:52:04;;;;;;;22.85;17.35;;;;;;;-144.51;100.00;69251.94;5122710;28;20039;-64
2021/09/27 15:54:50;;;;;;;23.02;15.35;;;;;;;-144.51;100.00;69251.94;5122534;28;20498;-64
2021/09/27 15:57:34;;;;;;;18.13;12.80;;;;;;;-144.51;100.00;69251.94;5121859;28;20039;-64
2021/09/27 16:00:20;;;;;;;17.55;12.35;;;;;;;-144.51;100.00;69251.94;5116565;28;20047;-64
2021/09/27 16:03:07;;;;;;;19.25;11.05;;;;;;;-144.51;100.00;69251.94;5117254;28;20039;-63
2021/09/27 16:05:52;;;;;;;25.60;14.13;;;;;;;-144.51;100.00;69251.94;5117781;28;20411;-63
2021/09/27 16:08:37;;;;;;;18.92;11.93;;;;;;;-144.51;100.00;69251.94;5110670;28;20039;-64
2021/09/27 16:11:22;;;;;;;27.38;14.20;;;;;;;-144.51;100.00;69251.94;5117132;28;20040;-63
2021/09/27 16:14:07;;;;;;;22.17;11.80;;;;;;;-144.51;100.00;69251.94;5121686;28;20057;-63
2021/09/27 16:16:53;;;;;;;20.40;14.93;;;;;;;-144.51;100.00;69251.94;5122300;28;20407;-64
2021/09/27 16:19:38;;;;;;;21.85;12.07;;;;;;;-144.51;100.00;69251.94;5115498;28;20043;-63
2021/09/27 16:22:22;;;;;;;21.70;12.80;;;;;;;-144.51;100.00;69251.94;5122130;28;20043;-63
2021/09/27 16:25:09;;;;;;;20.48;11.85;;;;;;;-144.51;100.00;69251.94;5122358;28;20494;-63
2021/09/27 16:27:55;;;;;;;100.15;26.73;;;;;;;-144.51;100.00;69251.94;5120062;28;20410;-63
2021/09/27 16:30:40;;;;;;;45.28;17.40;;;;;;;-144.51;100.00;69251.94;5117413;28;20040;-63
2021/09/27 16:33:25;;;;;;;25.23;15.88;;;;;;;-144.51;100.00;69251.94;5115626;28;20043;-63
2021/09/27 16:36:10;;;;;;;46.00;16.65;;;;;;;-144.51;100.00;69251.94;5121889;28;20217;-63
2021/09/27 16:38:56;;;;;;;60.90;18.30;;;;;;;-144.51;100.00;69251.94;5117077;28;20047;-63
2021/09/27 16:41:46;;;;;;;30.63;17.33;;;;;;;-144.51;100.00;69251.94;5115701;28;20043;-63
2021/09/27 16:44:32;;;;;;;44.20;18.10;;;;;;;-144.51;100.00;69251.94;5119542;28;20043;-63
2021/09/27 16:47:17;;;;;;;39.25;16.15;;;;;;;-144.51;100.00;69251.94;5116867;28;20040;-64
2021/09/27 16:50:04;;;;;;;51.13;16.13;;;;;;;-144.51;100.00;69251.94;5121215;28;20478;-63
2021/09/27 16:52:50;;;;;;;41.80;15.65;;;;;;;-144.51;100.00;69251.94;5119546;28;20044;-63
2021/09/27 16:55:34;;;;;;;32.75;15.10;;;;;;;-144.51;100.00;69251.94;5121802;28;20043;-63
2021/09/27 16:58:20;;;;;;;32.72;15.82;;;;;;;-144.51;100.00;69251.94;5118326;28;20043;-62
2021/09/27 17:01:07;;;;;;;30.40;14.63;;;;;;;-144.51;100.00;69251.94;5121171;28;20043;-63
2021/09/27 17:03:52;;;;;;;29.92;17.67;;;;;;;-144.51;100.00;69251.94;5117313;28;20040;-64
2021/09/27 17:06:37;;;;;;;25.40;13.32;;;;;;;-144.51;100.00;69251.94;5121188;28;20048;-63
2021/09/27 17:09:22;;;;;;;32.55;13.68;;;;;;;-144.51;100.00;69251.94;5115116;28;20487;-63
2021/09/27 17:12:09;;;;;;;27.33;17.20;;;;;;;-144.51;100.00;69251.94;5121370;28;20039;-63
2021/09/27 17:17:52;;;;;;;28.88;12.93;;;;;;;-144.51;100.00;69251.94;5110081;28;20048;-64
2021/09/27 17:20:50;;;;;;;22.25;12.63;;;;;;;-144.51;100.00;69251.94;5119579;27;20491;-64